DKKHK EDLW-EDLW

Flight info

Callsign DKKHK
Flight time 0h 0m
Altitude
Route
Aircraft DISC

Departure

Time 2026-05-06 17:55
Airport Dortmund Airport (EDLW)

Arrival

Time 2026-05-06 17:56
Airport Dortmund Airport (EDLW)
Time Latitude Longitude Altitude Speed Heading
2026-05-06 17:42 51.51155 7.60311 459 ft 0 kts 196°
2026-05-06 17:42 51.51168 7.60236 453 ft 0 kts 319°
2026-05-06 17:42 51.51163 7.60199 452 ft 8 kts 274°
2026-05-06 17:43 51.51212 7.60189 444 ft 0 kts 62°
2026-05-06 17:43 51.51237 7.60291 442 ft 13 kts 65°
2026-05-06 17:43 51.51283 7.60425 440 ft 15 kts 53°
2026-05-06 17:43 51.51344 7.60580 436 ft 17 kts 60°
2026-05-06 17:44 51.51399 7.60744 426 ft 17 kts 63°
2026-05-06 17:44 51.51457 7.60910 429 ft 16 kts 60°
2026-05-06 17:44 51.51511 7.61047 425 ft 13 kts 39°
2026-05-06 17:44 51.51564 7.61047 423 ft 8 kts 314°
2026-05-06 17:45 51.51572 7.60976 421 ft 5 kts 261°
2026-05-06 17:45 51.51566 7.60932 419 ft 5 kts 254°
2026-05-06 17:45 51.51555 7.60870 415 ft 6 kts 253°
2026-05-06 17:45 51.51540 7.60792 414 ft 9 kts 255°
2026-05-06 17:46 51.51526 7.60699 415 ft 7 kts 266°
2026-05-06 17:46 51.51527 7.60680 414 ft 0 kts 284°
2026-05-06 17:50 51.51535 7.60651 414 ft 7 kts 306°
2026-05-06 17:50 51.51585 7.60598 414 ft 8 kts 342°
2026-05-06 17:50 51.51610 7.60595 414 ft 0 kts 80°
2026-05-06 17:51 51.51618 7.60615 414 ft 10 kts 57°
2026-05-06 17:52 51.51677 7.60798 415 ft 27 kts 62°
2026-05-06 17:52 51.51801 7.61140 414 ft 43 kts 59°
2026-05-06 17:52 51.51977 7.61636 407 ft 58 kts 64°
2026-05-06 17:52 51.52199 7.62278 426 ft 70 kts 61°
2026-05-06 17:53 51.52430 7.63006 461 ft 77 kts 78°
2026-05-06 17:53 51.52199 7.63542 601 ft 45 kts 170°
2026-05-06 17:53 51.51966 7.63316 628 ft 45 kts 235°
2026-05-06 17:53 51.51828 7.62935 739 ft 40 kts 233°
2026-05-06 17:54 51.51665 7.62573 774 ft 48 kts 233°
2026-05-06 17:54 51.51483 7.62141 782 ft 47 kts 227°
2026-05-06 17:54 51.51345 7.61736 859 ft 38 kts 226°
2026-05-06 17:54 51.51183 7.61355 860 ft 44 kts 230°
2026-05-06 17:55 51.51032 7.60973 950 ft 39 kts 238°
2026-05-06 17:55 51.50899 7.60556 999 ft 48 kts 238°
2026-05-06 17:55 51.50792 7.60068 1124 ft 47 kts 249°
2026-05-06 17:55 51.50711 7.59453 1175 ft 54 kts 234°
2026-05-06 17:56 51.50531 7.58995 1332 ft 45 kts 236°
2026-05-06 17:56 51.50335 7.58493 1382 ft 56 kts 234°
2026-05-06 17:56 51.50120 7.58005 1505 ft 52 kts 229°
2026-05-06 17:56 51.49899 7.57550 1610 ft 51 kts 232°
2026-05-06 17:57 51.49667 7.57086 1674 ft 51 kts 232°
2026-05-06 17:57 51.49381 7.56683 1589 ft 60 kts 219°
2026-05-06 17:57 51.49282 7.56111 1568 ft 64 kts 301°
2026-05-06 17:57 51.49730 7.55794 1502 ft 75 kts 340°
2026-05-06 17:58 51.50126 7.56299 1434 ft 79 kts 71°
2026-05-06 17:58 51.50373 7.57057 1327 ft 76 kts 64°
2026-05-06 17:58 51.50639 7.57815 1138 ft 79 kts 65°
2026-05-06 17:58 51.50915 7.58597 904 ft 81 kts 65°
2026-05-06 17:59 51.51188 7.59387 659 ft 80 kts 62°
2026-05-06 17:59 51.51455 7.60154 465 ft 79 kts 61°
2026-05-06 17:59 51.51698 7.60842 415 ft 63 kts 60°
2026-05-06 17:59 51.51929 7.61509 435 ft 73 kts 63°
2026-05-06 18:00 51.52195 7.62202 507 ft 76 kts 59°
2026-05-06 18:00 51.52511 7.62866 598 ft 74 kts 17°
2026-05-06 18:00 51.52971 7.62772 681 ft 65 kts 341°
2026-05-06 18:00 51.53320 7.62383 706 ft 60 kts 258°
2026-05-06 18:01 51.53183 7.61780 789 ft 53 kts 243°
2026-05-06 18:01 51.53091 7.61239 874 ft 47 kts 255°
2026-05-06 18:01 51.53054 7.60681 869 ft 51 kts 244°
2026-05-06 18:01 51.52938 7.60200 1036 ft 29 kts 242°
2026-05-06 18:02 51.52806 7.59685 993 ft 53 kts 241°
2026-05-06 18:02 51.52443 7.59413 929 ft 68 kts 183°
2026-05-06 18:02 51.51991 7.59595 841 ft 63 kts 174°
2026-05-06 18:02 51.51550 7.59813 726 ft 74 kts 157°
2026-05-06 18:03 51.51614 7.60602 421 ft 82 kts 62°
2026-05-06 18:03 51.51859 7.61298 430 ft 71 kts 63°
2026-05-06 18:03 51.52100 7.61997 517 ft 72 kts 62°
2026-05-06 18:03 51.52344 7.62671 622 ft 67 kts 60°
2026-05-06 18:04 51.52320 7.63224 593 ft 53 kts 185°
2026-05-06 18:04 51.52018 7.63452 631 ft 48 kts 224°
2026-05-06 18:04 51.51625 7.62560 685 ft 42 kts 225°
2026-05-06 18:04 51.51442 7.62167 760 ft 43 kts 233°
2026-05-06 18:05 51.51301 7.61722 782 ft 49 kts 236°
2026-05-06 18:05 51.51034 7.61330 689 ft 60 kts 194°
2026-05-06 18:05 51.50689 7.61454 854 ft 61 kts 141°
2026-05-06 18:05 51.50863 7.61995 873 ft 72 kts 322°
2026-05-06 18:06 51.50758 7.61581 903 ft 43 kts 219°
2026-05-06 18:06 51.50522 7.61927 981 ft 73 kts 82°
2026-05-06 18:06 51.50925 7.62072 962 ft 62 kts 283°
2026-05-06 18:06 51.50733 7.61800 1041 ft 54 kts 172°
2026-05-06 18:07 51.50738 7.62486 1077 ft 87 kts 20°
2026-05-06 18:07 51.51012 7.62098 1163 ft 62 kts 241°
2026-05-06 18:07 51.50725 7.61849 1315 ft 66 kts 140°
2026-05-06 18:07 51.51004 7.62215 1294 ft 82 kts 305°
2026-05-06 18:08 51.51036 7.61368 1435 ft 64 kts 227°
2026-05-06 18:08 51.50654 7.61224 1534 ft 72 kts 157°
2026-05-06 18:08 51.50541 7.62009 1578 ft 94 kts 60°
2026-05-06 18:08 51.50970 7.61990 1639 ft 77 kts 261°
2026-05-06 18:09 51.50654 7.61408 1649 ft 74 kts 181°
2026-05-06 18:09 51.50561 7.62027 1812 ft 77 kts 27°
2026-05-06 18:09 51.50862 7.61651 1793 ft 64 kts 247°
2026-05-06 18:09 51.50534 7.61285 1803 ft 60 kts 176°
2026-05-06 18:10 51.50421 7.61834 1809 ft 69 kts 38°
2026-05-06 18:10 51.50663 7.61555 1749 ft 61 kts 245°
2026-05-06 18:10 51.50431 7.60989 1743 ft 60 kts 236°
2026-05-06 18:10 51.50242 7.60317 1668 ft 71 kts 246°
2026-05-06 18:11 51.50058 7.59594 1689 ft 67 kts 244°
2026-05-06 18:11 51.49887 7.58938 1720 ft 61 kts 243°
2026-05-06 18:11 51.49875 7.58258 1675 ft 69 kts 277°
2026-05-06 18:11 51.50000 7.57520 1666 ft 68 kts 297°
2026-05-06 18:12 51.50356 7.57085 1668 ft 71 kts
2026-05-06 18:12 51.50439 7.57738 1508 ft 85 kts 43°
2026-05-06 18:12 51.50868 7.58625 1067 ft 125 kts 60°
2026-05-06 18:12 51.51384 7.60029 533 ft 162 kts 59°
2026-05-06 18:13 51.51953 7.61239 1269 ft 84 kts 24°
2026-05-06 18:13 51.52470 7.61282 1337 ft 69 kts 333°
2026-05-06 18:13 51.52741 7.60769 1304 ft 62 kts 264°
2026-05-06 18:13 51.52693 7.60134 1312 ft 55 kts 256°
2026-05-06 18:14 51.52564 7.59566 1295 ft 56 kts 243°
2026-05-06 18:14 51.52439 7.58957 1299 ft 58 kts 248°
2026-05-06 18:14 51.52325 7.58357 1370 ft 60 kts 247°
2026-05-06 18:14 51.52128 7.57777 1458 ft 59 kts 233°
2026-05-06 18:15 51.51906 7.57238 1540 ft 58 kts 242°
2026-05-06 18:15 51.51762 7.56673 1593 ft 51 kts 235°
2026-05-06 18:15 51.51591 7.56190 1599 ft 49 kts 239°
2026-05-06 18:15 51.51179 7.56716 1110 ft 127 kts 129°
2026-05-06 18:16 51.50911 7.58301 747 ft 169 kts 86°
2026-05-06 18:16 51.51384 7.60098 485 ft 177 kts 60°
2026-05-06 18:16 51.51999 7.61699 415 ft 166 kts 59°
2026-05-06 18:16 51.52606 7.63178 718 ft 134 kts 33°
2026-05-06 18:17 51.53006 7.62830 1272 ft 63 kts 243°
2026-05-06 18:17 51.52885 7.62241 1427 ft 56 kts 246°
2026-05-06 18:17 51.52759 7.61667 1438 ft 55 kts 246°
2026-05-06 18:17 51.52597 7.61093 1439 ft 58 kts 245°
2026-05-06 18:18 51.52456 7.60504 1465 ft 53 kts 243°
2026-05-06 18:18 51.52621 7.59987 1445 ft 71 kts 344°
2026-05-06 18:18 51.52895 7.60497 1420 ft 71 kts 132°
2026-05-06 18:18 51.52666 7.60312 1442 ft 59 kts 287°
2026-05-06 18:19 51.52907 7.60467 1425 ft 59 kts 165°
2026-05-06 18:19 51.52912 7.60126 1423 ft 66 kts 339°
2026-05-06 18:19 51.53024 7.60581 1410 ft 59 kts 185°
2026-05-06 18:19 51.53164 7.60310 1436 ft 71 kts 35°
2026-05-06 18:20 51.53026 7.60520 1421 ft 63 kts 264°
2026-05-06 18:20 51.53404 7.60009 1453 ft 80 kts 322°
2026-05-06 18:20 51.53690 7.59689 1572 ft 71 kts 318°
2026-05-06 18:20 51.54108 7.59234 1639 ft 77 kts 324°
2026-05-06 18:21 51.54813 7.59121 1712 ft 88 kts 12°
2026-05-06 18:21 51.55224 7.59279 1748 ft 92 kts 12°
2026-05-06 18:21 51.56073 7.59674 1807 ft 104 kts 15°
2026-05-06 18:21 51.56818 7.59970 1857 ft 112 kts 14°
2026-05-06 18:22 51.57509 7.60271 2218 ft 81 kts 16°
2026-05-06 18:22 51.57888 7.60482 2227 ft 89 kts 11°
2026-05-06 18:22 51.58512 7.60718 2245 ft 99 kts
2026-05-06 18:22 51.59234 7.60949 2273 ft 107 kts 10°
2026-05-06 18:23 51.59978 7.61134 2290 ft 115 kts